createdAt,value
2023-01-13T00:00:03.060Z,1
2023-01-13T00:01:03.049Z,1
2023-01-13T00:02:03.094Z,1
2023-01-13T00:03:03.223Z,1
2023-01-13T00:04:03.214Z,1
2023-01-13T00:05:03.143Z,1
2023-01-13T00:06:03.053Z,1
2023-01-13T00:07:04.140Z,2
2023-01-13T00:08:03.034Z,1
2023-01-13T00:09:03.584Z,1
2023-01-13T00:10:03.027Z,1
2023-01-13T00:11:03.550Z,1
2023-01-13T00:12:03.027Z,1
2023-01-13T00:13:03.753Z,1
2023-01-13T00:14:03.103Z,1
2023-01-13T00:15:03.407Z,1
2023-01-13T00:16:03.465Z,1
2023-01-13T00:17:03.287Z,1
2023-01-13T00:18:03.297Z,1
2023-01-13T00:19:03.180Z,1
2023-01-13T00:20:03.638Z,1
2023-01-13T00:21:03.905Z,1
2023-01-13T00:22:03.388Z,1
2023-01-13T00:23:03.799Z,1
2023-01-13T00:24:03.034Z,1
2023-01-13T00:25:03.679Z,1
2023-01-13T00:26:03.005Z,1
2023-01-13T00:27:03.050Z,1
2023-01-13T00:28:03.026Z,1
2023-01-13T00:29:03.075Z,1
2023-01-13T00:30:03.835Z,1
2023-01-13T00:31:03.148Z,1
2023-01-13T00:32:03.768Z,1
2023-01-13T00:33:03.024Z,1
2023-01-13T00:34:03.069Z,1
2023-01-13T00:35:03.425Z,1
2023-01-13T00:36:03.210Z,1
2023-01-13T00:37:03.023Z,1
2023-01-13T00:38:03.523Z,1
2023-01-13T00:39:03.551Z,0
2023-01-13T00:40:03.817Z,1
2023-01-13T00:41:03.018Z,1
2023-01-13T00:42:03.427Z,1
2023-01-13T00:43:03.611Z,1
2023-01-13T00:44:03.288Z,1
2023-01-13T00:45:03.156Z,1
2023-01-13T00:46:03.698Z,1
2023-01-13T00:47:03.893Z,1
2023-01-13T00:48:03.055Z,1
2023-01-13T00:49:03.280Z,1
2023-01-13T00:50:03.029Z,1
2023-01-13T00:51:03.070Z,1
2023-01-13T00:52:03.693Z,1
2023-01-13T00:53:03.682Z,1
2023-01-13T00:54:03.033Z,1
2023-01-13T00:55:03.039Z,1
2023-01-13T00:56:03.300Z,1
2023-01-13T00:57:03.887Z,1
2023-01-13T00:58:03.653Z,1
2023-01-13T00:59:03.332Z,1
2023-01-13T01:00:03.783Z,1
2023-01-13T01:01:03.682Z,1
2023-01-13T01:02:03.333Z,1
2023-01-13T01:03:03.414Z,1
2023-01-13T01:04:03.483Z,1
2023-01-13T01:05:04.004Z,1
2023-01-13T01:06:03.936Z,1
2023-01-13T01:07:03.023Z,1
2023-01-13T01:08:03.505Z,1
2023-01-13T01:09:03.192Z,1
2023-01-13T01:10:03.025Z,1
2023-01-13T01:11:03.552Z,1
2023-01-13T01:12:03.539Z,1
2023-01-13T01:13:03.606Z,1
2023-01-13T01:14:03.094Z,1
2023-01-13T01:15:03.055Z,1
2023-01-13T01:16:03.870Z,1
2023-01-13T01:17:03.035Z,1
2023-01-13T01:18:03.572Z,1
2023-01-13T01:19:03.738Z,1
2023-01-13T01:20:03.680Z,1
2023-01-13T01:21:04.008Z,1
2023-01-13T01:22:03.031Z,1
2023-01-13T01:23:03.430Z,1
2023-01-13T01:24:03.349Z,1
2023-01-13T01:25:03.277Z,1
2023-01-13T01:26:03.422Z,1
2023-01-13T01:27:03.472Z,1
2023-01-13T01:28:03.977Z,1
2023-01-13T01:29:03.461Z,1
2023-01-13T01:30:03.586Z,1
2023-01-13T01:31:03.731Z,1
2023-01-13T01:32:03.052Z,1
2023-01-13T01:33:03.360Z,1
2023-01-13T01:34:03.335Z,1
2023-01-13T01:35:03.023Z,1
2023-01-13T01:36:03.032Z,1
2023-01-13T01:37:03.954Z,1
2023-01-13T01:38:03.816Z,1
2023-01-13T01:39:03.645Z,1
2023-01-13T01:40:03.546Z,1
2023-01-13T01:41:03.126Z,1
2023-01-13T01:42:03.548Z,1
2023-01-13T01:43:03.033Z,1
2023-01-13T01:44:03.140Z,1
2023-01-13T01:45:03.024Z,1
2023-01-13T01:46:02.998Z,1
2023-01-13T01:47:03.123Z,1
2023-01-13T01:48:03.025Z,1
2023-01-13T01:49:03.719Z,1
2023-01-13T01:50:03.383Z,1
2023-01-13T01:51:03.646Z,1
2023-01-13T01:52:03.601Z,1
2023-01-13T01:53:03.030Z,1
2023-01-13T01:54:03.667Z,1
2023-01-13T01:55:03.308Z,2
2023-01-13T01:56:03.045Z,1
2023-01-13T01:57:03.807Z,1
2023-01-13T01:58:03.546Z,1
2023-01-13T01:59:03.600Z,1
2023-01-13T02:00:03.357Z,1
2023-01-13T02:01:03.442Z,1
2023-01-13T02:02:03.135Z,1
2023-01-13T02:03:03.030Z,1
2023-01-13T02:04:03.309Z,1
2023-01-13T02:05:03.793Z,1
2023-01-13T02:06:03.644Z,1
2023-01-13T02:07:03.056Z,1
2023-01-13T02:08:02.983Z,1
2023-01-13T02:09:03.202Z,1
2023-01-13T02:10:03.001Z,1
2023-01-13T02:11:03.062Z,1
2023-01-13T02:12:03.033Z,1
2023-01-13T02:13:03.443Z,1
2023-01-13T02:14:03.036Z,1
2023-01-13T02:15:03.949Z,1
2023-01-13T02:16:03.132Z,1
2023-01-13T02:17:03.647Z,1
2023-01-13T02:18:02.999Z,1
2023-01-13T02:19:03.056Z,1
2023-01-13T02:20:03.008Z,1
2023-01-13T02:21:03.021Z,1
2023-01-13T02:22:03.660Z,1
2023-01-13T02:23:03.768Z,1
2023-01-13T02:24:03.170Z,1
2023-01-13T02:25:03.205Z,1
2023-01-13T02:26:03.019Z,1
2023-01-13T02:27:03.405Z,1
2023-01-13T02:28:03.562Z,1
2023-01-13T02:29:03.027Z,1
2023-01-13T02:30:03.614Z,1
2023-01-13T02:31:03.467Z,1
2023-01-13T02:32:03.576Z,1
2023-01-13T02:33:03.594Z,1
2023-01-13T02:34:03.567Z,1
2023-01-13T02:35:03.142Z,1
2023-01-13T02:36:01.818Z,1
2023-01-13T02:37:03.025Z,1
2023-01-13T02:38:03.625Z,1
2023-01-13T02:39:03.500Z,1
2023-01-13T02:40:03.826Z,1
2023-01-13T02:41:03.457Z,1
2023-01-13T02:42:03.030Z,1
2023-01-13T02:43:03.022Z,1
2023-01-13T02:44:03.534Z,1
2023-01-13T02:45:03.187Z,2
2023-01-13T02:46:03.076Z,1
2023-01-13T02:47:03.030Z,1
2023-01-13T02:48:03.225Z,1
2023-01-13T02:49:03.739Z,1
2023-01-13T02:50:03.061Z,1
2023-01-13T02:51:03.002Z,1
2023-01-13T02:52:03.090Z,1
2023-01-13T02:53:03.031Z,1
2023-01-13T02:54:03.270Z,1
2023-01-13T02:55:03.019Z,1
2023-01-13T02:56:03.457Z,1
2023-01-13T02:57:03.017Z,1
2023-01-13T02:58:03.917Z,1
2023-01-13T02:59:03.055Z,1
2023-01-13T03:00:03.034Z,1
2023-01-13T03:01:03.607Z,1
2023-01-13T03:02:03.108Z,1
2023-01-13T03:03:03.214Z,1
2023-01-13T03:04:03.743Z,1
2023-01-13T03:05:03.415Z,1
2023-01-13T03:06:03.115Z,1
2023-01-13T03:07:02.986Z,1
2023-01-13T03:08:02.959Z,1
2023-01-13T03:09:03.415Z,1
2023-01-13T03:10:02.989Z,1
2023-01-13T03:11:03.451Z,1
2023-01-13T03:12:03.168Z,1
2023-01-13T03:13:03.384Z,1
2023-01-13T03:14:02.969Z,1
2023-01-13T03:15:03.602Z,1
2023-01-13T03:16:03.014Z,1
2023-01-13T03:17:03.522Z,1
2023-01-13T03:18:02.945Z,1
2023-01-13T03:19:03.306Z,1
2023-01-13T03:20:03.032Z,1
2023-01-13T03:21:03.122Z,1
2023-01-13T03:22:02.601Z,1
2023-01-13T03:23:03.149Z,1
2023-01-13T03:24:02.997Z,1
2023-01-13T03:25:05.055Z,1
2023-01-13T03:26:03.176Z,1
2023-01-13T03:27:03.563Z,1
2023-01-13T03:28:03.395Z,1
2023-01-13T03:29:03.431Z,1
2023-01-13T03:30:03.441Z,1
2023-01-13T03:31:02.984Z,1
2023-01-13T03:32:03.010Z,1
2023-01-13T03:33:03.004Z,1
2023-01-13T03:34:03.539Z,1
2023-01-13T03:35:03.511Z,1
2023-01-13T03:36:02.966Z,1
2023-01-13T03:37:03.056Z,1
2023-01-13T03:38:03.586Z,1
2023-01-13T03:39:03.624Z,1
2023-01-13T03:40:03.524Z,1
2023-01-13T03:41:03.016Z,1
2023-01-13T03:42:03.984Z,1
2023-01-13T03:43:03.671Z,1
2023-01-13T03:44:04.025Z,1
2023-01-13T03:45:03.617Z,1
2023-01-13T03:46:03.701Z,1
2023-01-13T03:47:02.949Z,1
2023-01-13T03:48:03.025Z,1
2023-01-13T03:49:03.366Z,1
2023-01-13T03:50:03.052Z,1
2023-01-13T03:51:02.959Z,1
2023-01-13T03:52:03.384Z,1
2023-01-13T03:53:03.766Z,1
2023-01-13T03:54:03.239Z,1
2023-01-13T03:55:03.381Z,2
2023-01-13T03:56:02.959Z,1
2023-01-13T03:57:02.952Z,1
2023-01-13T03:58:03.739Z,1
2023-01-13T03:59:03.619Z,1
2023-01-13T04:00:03.635Z,1
2023-01-13T04:01:03.801Z,1
2023-01-13T04:02:03.992Z,1
2023-01-13T04:03:03.045Z,1
2023-01-13T04:04:03.716Z,1
2023-01-13T04:05:03.651Z,2
2023-01-13T04:06:03.330Z,1
2023-01-13T04:07:03.596Z,1
2023-01-13T04:08:03.471Z,1
2023-01-13T04:09:04.559Z,1
2023-01-13T04:10:03.017Z,1
2023-01-13T04:11:03.581Z,1
2023-01-13T04:12:03.237Z,2
2023-01-13T04:13:03.186Z,2
2023-01-13T04:14:03.448Z,2
2023-01-13T04:15:03.077Z,2
2023-01-13T04:16:03.027Z,2
2023-01-13T04:17:03.484Z,1
2023-01-13T04:18:03.002Z,2
2023-01-13T04:19:03.309Z,2
2023-01-13T04:20:03.717Z,2
2023-01-13T04:21:02.951Z,2
2023-01-13T04:22:03.162Z,1
2023-01-13T04:23:03.008Z,2
2023-01-13T04:24:04.718Z,2
2023-01-13T04:25:02.995Z,1
2023-01-13T04:26:02.957Z,2
2023-01-13T04:27:03.526Z,2
2023-01-13T04:28:02.997Z,2
2023-01-13T04:29:01.752Z,2
2023-01-13T04:30:05.097Z,2
2023-01-13T04:31:03.006Z,2
2023-01-13T04:32:02.983Z,2
2023-01-13T04:33:03.007Z,2
2023-01-13T04:34:03.639Z,2
2023-01-13T04:35:03.161Z,2
2023-01-13T04:36:03.118Z,2
2023-01-13T04:37:02.962Z,2
2023-01-13T04:38:03.326Z,2
2023-01-13T04:39:03.697Z,2
2023-01-13T04:40:03.096Z,2
2023-01-13T04:41:02.963Z,2
2023-01-13T04:42:02.989Z,2
2023-01-13T04:43:03.175Z,2
2023-01-13T04:44:03.350Z,2
2023-01-13T04:45:03.048Z,2
2023-01-13T04:46:03.043Z,3
2023-01-13T04:47:02.933Z,2
2023-01-13T04:48:02.966Z,2
2023-01-13T04:49:02.968Z,2
2023-01-13T04:50:03.016Z,2
2023-01-13T04:51:03.375Z,2
2023-01-13T04:52:03.439Z,2
2023-01-13T04:53:02.960Z,2
2023-01-13T04:54:03.334Z,2
2023-01-13T04:55:03.209Z,2
2023-01-13T04:56:02.976Z,2
2023-01-13T04:57:02.967Z,2
2023-01-13T04:58:02.960Z,2
2023-01-13T04:59:02.988Z,2
2023-01-13T05:00:03.591Z,2
2023-01-13T05:01:03.042Z,2
2023-01-13T05:02:03.603Z,3
2023-01-13T05:03:02.974Z,2
2023-01-13T05:04:03.061Z,2
2023-01-13T05:05:03.064Z,2
2023-01-13T05:06:03.745Z,2
2023-01-13T05:07:03.790Z,3
2023-01-13T05:08:03.650Z,2
2023-01-13T05:09:02.959Z,3
2023-01-13T05:10:02.980Z,3
2023-01-13T05:11:02.963Z,3
2023-01-13T05:12:02.998Z,2
2023-01-13T05:13:03.856Z,3
2023-01-13T05:14:02.953Z,3
2023-01-13T05:15:02.964Z,2
2023-01-13T05:16:05.192Z,3
2023-01-13T05:17:03.007Z,3
2023-01-13T05:18:03.605Z,3
2023-01-13T05:19:03.791Z,2
2023-01-13T05:20:03.616Z,3
2023-01-13T05:21:03.474Z,2
2023-01-13T05:22:03.259Z,3
2023-01-13T05:23:03.251Z,3
2023-01-13T05:24:03.288Z,3
2023-01-13T05:25:02.987Z,2
2023-01-13T05:26:03.318Z,2
2023-01-13T05:27:02.969Z,3
2023-01-13T05:28:03.255Z,3
2023-01-13T05:29:03.421Z,3
2023-01-13T05:30:03.344Z,2
2023-01-13T05:31:03.029Z,3
2023-01-13T05:32:03.491Z,2
2023-01-13T05:33:03.616Z,2
2023-01-13T05:34:03.278Z,2
2023-01-13T05:35:04.436Z,2
2023-01-13T05:36:03.725Z,2
2023-01-13T05:37:02.989Z,3
2023-01-13T05:38:03.413Z,3
2023-01-13T05:39:03.122Z,3
2023-01-13T05:40:03.000Z,2
2023-01-13T05:41:02.988Z,3
2023-01-13T05:42:03.458Z,3
2023-01-13T05:43:03.327Z,2
2023-01-13T05:44:03.425Z,2
2023-01-13T05:45:02.966Z,2
2023-01-13T05:46:03.145Z,2
2023-01-13T05:47:02.964Z,2
2023-01-13T05:48:03.023Z,2
2023-01-13T05:49:03.312Z,3
2023-01-13T05:50:03.017Z,3
2023-01-13T05:51:03.022Z,3
2023-01-13T05:52:03.253Z,2
2023-01-13T05:53:03.414Z,3
2023-01-13T05:54:03.021Z,2
2023-01-13T05:55:03.026Z,3
2023-01-13T05:56:03.334Z,2
2023-01-13T05:57:03.411Z,3
2023-01-13T05:58:01.742Z,2
2023-01-13T05:59:03.297Z,3
2023-01-13T06:00:02.996Z,2
2023-01-13T06:01:03.697Z,2
2023-01-13T06:02:03.205Z,3
2023-01-13T06:03:03.051Z,2
2023-01-13T06:04:03.092Z,2
2023-01-13T06:05:03.179Z,3
2023-01-13T06:06:03.515Z,2
2023-01-13T06:07:02.964Z,2
2023-01-13T06:08:03.001Z,3
2023-01-13T06:09:03.461Z,2
2023-01-13T06:10:03.492Z,2
2023-01-13T06:11:03.404Z,3
2023-01-13T06:12:02.994Z,2
2023-01-13T06:13:02.977Z,3
2023-01-13T06:14:03.547Z,2
2023-01-13T06:15:03.370Z,2
2023-01-13T06:16:03.340Z,2
2023-01-13T06:17:03.792Z,2
2023-01-13T06:18:02.960Z,2
2023-01-13T06:19:03.712Z,2
2023-01-13T06:20:03.641Z,2
2023-01-13T06:21:02.953Z,3
2023-01-13T06:22:03.025Z,3
2023-01-13T06:23:03.022Z,2
2023-01-13T06:24:03.526Z,2
2023-01-13T06:25:03.687Z,2
2023-01-13T06:26:03.760Z,2
2023-01-13T06:27:03.841Z,2
2023-01-13T06:28:03.746Z,2
2023-01-13T06:29:03.783Z,3
2023-01-13T06:30:03.853Z,2
2023-01-13T06:31:03.025Z,2
2023-01-13T06:32:03.213Z,2
2023-01-13T06:33:03.074Z,2
2023-01-13T06:34:03.009Z,2
2023-01-13T06:35:05.377Z,3
2023-01-13T06:36:03.427Z,3
2023-01-13T06:37:03.662Z,3
2023-01-13T06:38:02.979Z,2
2023-01-13T06:39:03.330Z,2
2023-01-13T06:40:03.138Z,2
2023-01-13T06:41:03.529Z,2
2023-01-13T06:42:03.260Z,2
2023-01-13T06:43:03.038Z,2
2023-01-13T06:44:02.949Z,2
2023-01-13T06:45:02.973Z,2
2023-01-13T06:46:02.965Z,2
2023-01-13T06:47:04.970Z,2
2023-01-13T06:48:02.988Z,2
2023-01-13T06:49:03.543Z,3
2023-01-13T06:50:03.840Z,3
2023-01-13T06:51:02.985Z,2
2023-01-13T06:52:03.143Z,2
2023-01-13T06:53:02.941Z,3
2023-01-13T06:54:03.485Z,2
2023-01-13T06:55:02.982Z,2
2023-01-13T06:56:03.725Z,2
2023-01-13T06:57:03.714Z,2
2023-01-13T06:58:03.678Z,2
2023-01-13T06:59:03.315Z,3
2023-01-13T07:00:03.425Z,2
2023-01-13T07:01:03.482Z,3
2023-01-13T07:02:03.654Z,2
2023-01-13T07:03:03.507Z,3
2023-01-13T07:04:02.959Z,2
2023-01-13T07:05:02.969Z,2
2023-01-13T07:06:03.036Z,2
2023-01-13T07:07:03.026Z,2
2023-01-13T07:08:03.097Z,3
2023-01-13T07:09:03.131Z,2
2023-01-13T07:10:03.353Z,2
2023-01-13T07:11:03.716Z,2
2023-01-13T07:12:02.955Z,2
2023-01-13T07:13:03.136Z,2
2023-01-13T07:14:03.281Z,2
2023-01-13T07:15:03.212Z,2
2023-01-13T07:16:03.031Z,2
2023-01-13T07:17:03.485Z,3
2023-01-13T07:18:03.668Z,2
2023-01-13T07:19:03.687Z,2
2023-01-13T07:20:02.992Z,3
2023-01-13T07:21:03.568Z,2
2023-01-13T07:22:03.830Z,3
2023-01-13T07:23:03.036Z,2
2023-01-13T07:24:03.114Z,3
2023-01-13T07:25:03.034Z,3
2023-01-13T07:26:03.169Z,3
2023-01-13T07:27:03.238Z,4
2023-01-13T07:28:02.293Z,2
2023-01-13T07:29:03.460Z,2
2023-01-13T07:30:03.722Z,2
2023-01-13T07:31:03.399Z,4
2023-01-13T07:32:03.482Z,5
2023-01-13T07:33:02.979Z,4
2023-01-13T07:34:03.560Z,3
2023-01-13T07:35:02.973Z,3
2023-01-13T07:36:03.903Z,3
2023-01-13T07:37:03.049Z,3
2023-01-13T07:38:02.939Z,2
2023-01-13T07:39:03.213Z,4
2023-01-13T07:40:02.963Z,3
2023-01-13T07:41:02.950Z,3
2023-01-13T07:42:03.779Z,2
2023-01-13T07:43:03.632Z,2
2023-01-13T07:44:03.385Z,3
2023-01-13T07:45:03.011Z,3
2023-01-13T07:46:03.119Z,3
2023-01-13T07:47:03.065Z,3
2023-01-13T07:48:02.989Z,2
2023-01-13T07:49:03.891Z,2
2023-01-13T07:50:03.539Z,2
2023-01-13T07:51:03.783Z,3
2023-01-13T07:52:03.463Z,2
2023-01-13T07:53:02.969Z,2
2023-01-13T07:54:03.264Z,3
2023-01-13T07:55:02.963Z,2
2023-01-13T07:56:03.452Z,2
2023-01-13T07:57:03.378Z,2
2023-01-13T07:58:03.483Z,2
2023-01-13T07:59:03.967Z,2
2023-01-13T08:00:03.001Z,2
2023-01-13T08:01:03.779Z,2
2023-01-13T08:02:03.225Z,2
2023-01-13T08:03:02.979Z,3
2023-01-13T08:04:02.933Z,3
2023-01-13T08:05:03.231Z,2
2023-01-13T08:06:03.534Z,2
2023-01-13T08:07:03.207Z,2
2023-01-13T08:08:03.559Z,2
2023-01-13T08:09:03.007Z,2
2023-01-13T08:10:03.437Z,2
2023-01-13T08:11:03.489Z,2
2023-01-13T08:12:02.958Z,2
2023-01-13T08:13:03.580Z,2
2023-01-13T08:14:03.002Z,2
2023-01-13T08:15:02.950Z,2
2023-01-13T08:16:03.051Z,2
2023-01-13T10:42:02.977Z,3
2023-01-13T10:43:03.050Z,3
2023-01-13T10:44:03.120Z,3
2023-01-13T10:45:03.119Z,3
2023-01-13T10:46:02.979Z,3
2023-01-13T10:47:02.980Z,3
2023-01-13T10:48:02.940Z,3
2023-01-13T10:49:03.032Z,3
2023-01-13T10:50:03.051Z,3
2023-01-13T10:51:03.133Z,3
2023-01-13T10:52:03.574Z,3
2023-01-13T10:53:03.764Z,3
2023-01-13T10:54:03.141Z,3
2023-01-13T10:55:03.184Z,3
2023-01-13T10:56:03.299Z,3
2023-01-13T10:57:03.679Z,3
2023-01-13T10:58:03.560Z,3
2023-01-13T10:59:03.730Z,3
2023-01-13T11:00:03.368Z,3
2023-01-13T11:01:03.019Z,3
2023-01-13T11:02:13.001Z,3
2023-01-13T11:03:03.401Z,2
2023-01-13T11:04:03.346Z,3
2023-01-13T11:05:03.048Z,3
2023-01-13T11:06:02.959Z,3
2023-01-13T11:07:02.960Z,3
2023-01-13T11:08:03.355Z,3
2023-01-13T11:09:03.505Z,3
2023-01-13T11:32:03.299Z,4
2023-01-13T11:33:03.787Z,3
2023-01-13T11:34:03.452Z,4
2023-01-13T11:35:03.053Z,3
2023-01-13T11:36:02.945Z,3
2023-01-13T11:37:03.336Z,4
2023-01-13T11:38:02.941Z,3
2023-01-13T11:39:03.674Z,3
2023-01-13T11:40:02.951Z,4
2023-01-13T11:41:03.550Z,3
2023-01-13T11:42:02.976Z,3
2023-01-13T11:43:02.992Z,3
2023-01-13T11:44:03.307Z,4
2023-01-13T11:45:03.074Z,3
2023-01-13T11:46:03.497Z,3
2023-01-13T11:47:03.059Z,3
2023-01-13T11:48:03.384Z,3
2023-01-13T11:49:03.361Z,3
2023-01-13T11:50:03.090Z,3
2023-01-13T11:51:02.960Z,3
2023-01-13T11:52:02.981Z,3
2023-01-13T11:53:03.624Z,3
2023-01-13T11:54:02.942Z,3
2023-01-13T11:55:03.675Z,3
2023-01-13T11:56:02.921Z,3
2023-01-13T11:57:03.412Z,3
2023-01-13T11:58:03.588Z,3
2023-01-13T11:59:02.969Z,3
2023-01-13T12:00:02.968Z,3
2023-01-13T12:01:03.162Z,3
2023-01-13T12:02:03.416Z,4
2023-01-13T12:03:03.088Z,3
2023-01-13T12:04:03.526Z,5
2023-01-13T12:05:03.486Z,5
2023-01-13T12:06:03.647Z,5
2023-01-13T12:07:03.039Z,3
2023-01-13T12:08:03.524Z,4
2023-01-13T12:09:02.978Z,3
2023-01-13T12:10:03.928Z,3
2023-01-13T12:11:03.667Z,3
2023-01-13T12:12:02.939Z,4
2023-01-13T12:13:02.923Z,4
2023-01-13T12:14:02.957Z,4
2023-01-13T12:15:03.121Z,4
2023-01-13T12:16:03.549Z,4
2023-01-13T12:17:03.009Z,4
2023-01-13T12:18:03.373Z,4
2023-01-13T12:19:02.931Z,4
2023-01-13T12:20:03.748Z,3
2023-01-13T12:21:03.651Z,4
2023-01-13T12:22:03.146Z,3
2023-01-13T12:23:03.336Z,4
2023-01-13T12:24:02.158Z,4
2023-01-13T12:25:02.959Z,3
2023-01-13T12:26:02.957Z,4
2023-01-13T12:27:02.943Z,3
2023-01-13T12:28:03.241Z,3
2023-01-13T12:29:02.980Z,3
2023-01-13T12:30:03.205Z,3
2023-01-13T12:31:03.070Z,3
2023-01-13T12:32:03.359Z,2
2023-01-13T12:33:03.416Z,2
2023-01-13T12:34:03.530Z,3
2023-01-13T12:35:03.010Z,3
2023-01-13T12:36:02.923Z,3
2023-01-13T12:37:03.435Z,2
2023-01-13T12:38:02.966Z,2
2023-01-13T12:39:03.599Z,2
2023-01-13T12:40:02.917Z,3
2023-01-13T12:41:03.742Z,2
2023-01-13T12:42:03.263Z,3
2023-01-13T12:43:03.235Z,3
2023-01-13T12:44:03.499Z,2
2023-01-13T12:45:03.205Z,3
2023-01-13T12:46:03.479Z,3
2023-01-13T12:47:03.505Z,3
2023-01-13T12:48:03.840Z,3
2023-01-13T12:49:03.529Z,3
2023-01-13T12:50:03.405Z,3
2023-01-13T12:51:03.685Z,3
2023-01-13T12:52:03.602Z,3
2023-01-13T12:53:03.501Z,3
2023-01-13T12:54:02.929Z,3
2023-01-13T12:55:03.474Z,3
2023-01-13T12:56:03.432Z,3
2023-01-13T12:57:02.930Z,3
2023-01-13T12:58:03.282Z,3
2023-01-13T12:59:03.282Z,3
2023-01-13T13:00:02.968Z,2
2023-01-13T13:01:03.471Z,3
2023-01-13T13:02:03.200Z,3
2023-01-13T13:03:03.563Z,4
2023-01-13T13:04:03.359Z,3
2023-01-13T13:05:02.960Z,2
2023-01-13T13:06:03.575Z,3
2023-01-13T13:07:03.650Z,3
2023-01-13T13:08:02.947Z,3
2023-01-13T13:09:04.098Z,3
2023-01-13T13:10:02.930Z,3
2023-01-13T13:11:03.844Z,3
2023-01-13T13:12:02.938Z,3
2023-01-13T13:13:02.934Z,3
2023-01-13T13:14:02.917Z,3
2023-01-13T13:15:03.872Z,3
2023-01-13T13:16:02.965Z,2
2023-01-13T13:17:03.824Z,3
2023-01-13T13:18:03.691Z,3
2023-01-13T13:19:03.319Z,3
2023-01-13T13:20:02.975Z,3
2023-01-13T13:21:04.880Z,3
2023-01-13T13:22:02.921Z,3
2023-01-13T13:23:03.169Z,3
2023-01-13T13:24:03.794Z,3
2023-01-13T13:25:02.955Z,3
2023-01-13T13:26:02.949Z,3
2023-01-13T13:27:03.744Z,3
2023-01-13T13:28:01.769Z,3
2023-01-13T13:29:03.431Z,3
2023-01-13T13:30:03.302Z,3
2023-01-13T13:31:02.989Z,3
2023-01-13T13:32:02.934Z,4
2023-01-13T13:33:03.622Z,3
2023-01-13T13:34:03.766Z,4
2023-01-13T13:35:03.102Z,3
2023-01-13T13:36:02.981Z,3
2023-01-13T13:37:03.690Z,2
2023-01-13T13:38:03.174Z,4
2023-01-13T13:39:03.310Z,3
2023-01-13T13:40:03.142Z,3
2023-01-13T13:41:03.165Z,3
2023-01-13T13:42:02.982Z,3
2023-01-13T13:43:03.653Z,3
2023-01-13T13:44:02.957Z,3
2023-01-13T13:45:02.917Z,3
2023-01-13T13:46:03.013Z,4
2023-01-13T13:47:03.861Z,3
2023-01-13T13:48:02.938Z,3
2023-01-13T13:49:03.523Z,3
2023-01-13T13:50:03.512Z,3
2023-01-13T13:51:02.985Z,4
2023-01-13T13:52:02.973Z,3
2023-01-13T13:53:03.716Z,4
2023-01-13T13:54:02.933Z,4
2023-01-13T13:55:02.922Z,4
2023-01-13T13:56:03.144Z,5
2023-01-13T13:57:03.254Z,4
2023-01-13T13:58:02.951Z,3
2023-01-13T13:59:02.966Z,3
2023-01-13T14:00:02.949Z,3
2023-01-13T14:01:03.614Z,3
2023-01-13T14:02:03.364Z,4
2023-01-13T14:03:03.187Z,4
2023-01-13T14:04:02.941Z,3
2023-01-13T14:05:03.425Z,4
2023-01-13T14:06:03.191Z,3
2023-01-13T14:07:02.983Z,5
2023-01-13T14:08:02.956Z,3
2023-01-13T14:09:02.891Z,3
2023-01-13T14:10:02.999Z,3
2023-01-13T14:11:03.230Z,4
2023-01-13T14:12:02.901Z,3
2023-01-13T14:13:02.894Z,3
2023-01-13T14:14:02.908Z,3
2023-01-13T14:15:02.868Z,3
2023-01-13T14:16:03.590Z,4
2023-01-13T14:17:03.802Z,4
2023-01-13T14:18:03.236Z,3
2023-01-13T14:19:03.277Z,4
2023-01-13T14:20:02.904Z,4
2023-01-13T14:21:03.447Z,3
2023-01-13T14:22:02.913Z,4
2023-01-13T14:23:02.890Z,4
2023-01-13T14:24:03.328Z,4
2023-01-13T14:25:03.460Z,5
2023-01-13T14:26:02.855Z,4
2023-01-13T14:27:03.236Z,4
2023-01-13T14:28:03.598Z,4
2023-01-13T14:29:02.851Z,4
2023-01-13T14:30:03.834Z,4
2023-01-13T14:31:03.231Z,4
2023-01-13T14:32:03.473Z,4
2023-01-13T14:33:02.896Z,4
2023-01-13T14:34:02.904Z,5
2023-01-13T14:35:03.247Z,4
2023-01-13T14:36:02.053Z,4
2023-01-13T14:37:02.877Z,4
2023-01-13T14:38:02.905Z,4
2023-01-13T14:39:02.937Z,4
2023-01-13T14:40:03.287Z,4
2023-01-13T14:41:02.987Z,4
2023-01-13T14:42:02.897Z,6
2023-01-13T14:43:02.837Z,5
2023-01-13T14:44:02.833Z,5
2023-01-13T14:45:03.371Z,5
2023-01-13T14:46:03.205Z,7
2023-01-13T14:47:02.923Z,7
2023-01-13T14:48:02.987Z,6
2023-01-13T14:49:03.402Z,6
2023-01-13T14:50:03.613Z,6
2023-01-13T14:51:03.550Z,5
2023-01-13T14:52:03.006Z,4
2023-01-13T14:53:03.236Z,4
2023-01-13T14:54:03.600Z,5
2023-01-13T14:55:02.834Z,7
2023-01-13T14:56:03.454Z,5
2023-01-13T14:57:02.847Z,4
2023-01-13T14:58:03.211Z,5
2023-01-13T14:59:02.907Z,6
2023-01-13T15:01:03.482Z,5
2023-01-13T15:02:03.039Z,5
2023-01-13T15:03:02.981Z,6
2023-01-13T15:04:03.278Z,5
2023-01-13T15:05:02.890Z,5
2023-01-13T15:06:03.291Z,4
2023-01-13T15:07:02.938Z,5
2023-01-13T15:08:02.867Z,4
2023-01-13T15:09:03.552Z,4
2023-01-13T15:10:02.875Z,4
2023-01-13T15:11:02.833Z,5
2023-01-13T15:12:03.150Z,4
2023-01-13T15:13:03.307Z,4
2023-01-13T15:14:02.860Z,4
2023-01-13T15:15:02.830Z,4
2023-01-13T15:16:02.921Z,3
2023-01-13T15:17:02.860Z,5
2023-01-13T15:18:03.443Z,4
2023-01-13T15:19:03.521Z,3
2023-01-13T15:20:02.838Z,3
2023-01-13T15:21:03.729Z,4
2023-01-13T15:22:01.626Z,4
2023-01-13T15:23:02.983Z,3
2023-01-13T15:24:03.266Z,4
2023-01-13T15:25:03.045Z,4
2023-01-13T15:26:02.986Z,4
2023-01-13T15:27:02.827Z,4
2023-01-13T15:28:02.821Z,3
2023-01-13T15:29:03.730Z,4
2023-01-13T15:30:02.839Z,4
2023-01-13T15:31:03.300Z,4
2023-01-13T15:32:02.883Z,5
2023-01-13T15:33:02.874Z,4
2023-01-13T15:34:03.302Z,3
2023-01-13T15:35:02.987Z,4
2023-01-13T15:36:02.916Z,4
2023-01-13T15:37:02.820Z,3
2023-01-13T15:38:02.849Z,3
2023-01-13T15:39:02.827Z,3
2023-01-13T15:40:03.228Z,3
2023-01-13T15:41:03.391Z,3
2023-01-13T15:42:02.878Z,3
2023-01-13T15:43:02.941Z,3
2023-01-13T15:44:03.388Z,3
2023-01-13T15:45:03.625Z,3
2023-01-13T15:46:02.830Z,3
2023-01-13T15:47:03.034Z,3
2023-01-13T15:48:03.338Z,3
2023-01-13T15:49:03.361Z,3
2023-01-13T15:50:03.435Z,3
2023-01-13T15:51:03.745Z,3
2023-01-13T15:52:03.692Z,3
2023-01-13T15:53:03.613Z,2
2023-01-13T15:54:03.878Z,3
2023-01-13T15:55:03.089Z,3
2023-01-13T15:56:03.073Z,3
2023-01-13T15:57:02.819Z,3
2023-01-13T15:58:02.830Z,3
2023-01-13T15:59:02.871Z,3
2023-01-13T16:00:02.864Z,3
2023-01-13T16:01:03.366Z,3
2023-01-13T16:02:03.407Z,3
2023-01-13T16:03:02.913Z,3
2023-01-13T16:04:03.575Z,3
2023-01-13T16:05:02.821Z,5
2023-01-13T16:06:01.909Z,5
2023-01-13T16:07:02.907Z,4
2023-01-13T16:08:03.293Z,4
2023-01-13T16:09:03.720Z,4
2023-01-13T16:10:02.862Z,3
2023-01-13T16:11:03.335Z,3
2023-01-13T16:12:02.815Z,3
2023-01-13T16:13:02.857Z,3
2023-01-13T16:14:02.826Z,3
2023-01-13T16:15:03.034Z,3
2023-01-13T16:16:02.874Z,3
2023-01-13T16:17:03.467Z,3
2023-01-13T16:18:02.917Z,4
2023-01-13T16:19:03.421Z,3
2023-01-13T16:20:03.613Z,3
2023-01-13T16:21:02.911Z,3
2023-01-13T16:22:03.023Z,3
2023-01-13T16:23:03.033Z,4
2023-01-13T16:24:03.024Z,4
2023-01-13T16:25:03.530Z,5
2023-01-13T16:26:03.057Z,4
2023-01-13T16:27:03.523Z,3
2023-01-13T16:28:03.297Z,4
2023-01-13T16:29:03.547Z,4
2023-01-13T16:30:03.324Z,5
2023-01-13T16:31:03.168Z,4
2023-01-13T16:32:03.432Z,4
2023-01-13T16:33:02.864Z,4
2023-01-13T16:34:02.906Z,5
2023-01-13T16:35:03.719Z,4
2023-01-13T16:36:10.350Z,3
2023-01-13T16:37:02.872Z,3
2023-01-13T16:38:03.488Z,3
2023-01-13T16:39:02.902Z,3
2023-01-13T16:40:03.054Z,4
2023-01-13T16:41:03.148Z,4
2023-01-13T16:42:02.903Z,4
2023-01-13T16:43:02.898Z,4
2023-01-13T16:44:02.887Z,4
2023-01-13T16:45:02.873Z,4
2023-01-13T16:46:03.036Z,3
2023-01-13T16:47:03.411Z,4
2023-01-13T16:48:02.928Z,4
2023-01-13T16:49:02.911Z,3
2023-01-13T16:50:03.148Z,3
2023-01-13T16:51:03.079Z,3
2023-01-13T16:52:02.331Z,3
2023-01-13T16:53:03.124Z,4
2023-01-13T16:54:02.957Z,3
2023-01-13T16:55:03.393Z,4
2023-01-13T16:56:03.158Z,3
2023-01-13T16:57:02.896Z,4
2023-01-13T16:58:03.056Z,4
2023-01-13T16:59:03.718Z,3
2023-01-13T17:00:02.919Z,3
2023-01-13T17:01:03.933Z,4
2023-01-13T17:02:03.437Z,4
2023-01-13T17:03:03.474Z,4
2023-01-13T17:04:03.435Z,3
2023-01-13T17:05:03.163Z,3
2023-01-13T17:06:02.918Z,3
2023-01-13T17:07:02.889Z,3
2023-01-13T17:09:02.953Z,4
2023-01-13T17:10:03.434Z,4
2023-01-13T17:11:02.961Z,3
2023-01-13T17:12:02.934Z,3
2023-01-13T17:13:14.697Z,3
2023-01-13T17:14:18.470Z,3
2023-01-13T17:15:03.300Z,3
2023-01-13T17:16:03.462Z,3
2023-01-13T17:17:03.643Z,4
2023-01-13T17:18:02.891Z,3
2023-01-13T17:19:03.426Z,3
2023-01-13T17:20:03.154Z,3
2023-01-13T17:21:03.379Z,4
2023-01-13T17:22:03.607Z,4
2023-01-13T17:23:03.392Z,5
2023-01-13T17:24:03.515Z,5
2023-01-13T17:25:02.929Z,4
2023-01-13T17:26:02.925Z,4
2023-01-13T17:27:03.342Z,5
2023-01-13T17:28:03.725Z,4
2023-01-13T17:29:02.914Z,4
2023-01-13T17:30:02.994Z,5
2023-01-13T17:31:03.123Z,5
2023-01-13T17:32:02.910Z,4
2023-01-13T17:33:03.468Z,4
2023-01-13T17:34:03.526Z,4
2023-01-13T17:35:03.582Z,4
2023-01-13T17:36:01.689Z,4